createdAt,value
2022-08-23T00:02:22.961Z,2.00
2022-08-23T00:05:03.550Z,2.20
2022-08-23T00:07:40.136Z,1.90
2022-08-23T00:10:16.544Z,2.43
2022-08-23T00:12:47.018Z,1.90
2022-08-23T00:15:20.277Z,2.17
2022-08-23T00:17:50.469Z,1.90
2022-08-23T00:20:22.393Z,1.60
2022-08-23T00:22:52.073Z,2.57
2022-08-23T00:25:24.876Z,1.80
2022-08-23T00:27:55.805Z,2.30
2022-08-23T00:30:25.992Z,2.27
2022-08-23T00:32:58.079Z,2.20
2022-08-23T00:35:28.170Z,2.20
2022-08-23T00:38:31.907Z,2.13
2022-08-23T00:40:54.967Z,2.87
2022-08-23T00:43:42.857Z,2.20
2022-08-23T00:46:35.194Z,2.30
2022-08-23T00:49:09.954Z,2.63
2022-08-23T00:51:53.121Z,3.13
2022-08-23T00:54:24.894Z,3.10
2022-08-23T00:56:58.617Z,2.67
2022-08-23T00:59:29.116Z,2.83
2022-08-23T01:01:59.758Z,1.90
2022-08-23T01:04:32.791Z,2.23
2022-08-23T01:07:07.145Z,2.23
2022-08-23T01:09:36.881Z,2.60
2022-08-23T01:12:15.188Z,2.80
2022-08-23T01:14:50.560Z,2.23
2022-08-23T01:17:25.326Z,1.70
2022-08-23T01:19:57.742Z,1.93
2022-08-23T01:22:31.294Z,2.00
2022-08-23T01:25:07.398Z,2.13
2022-08-23T01:27:42.193Z,2.20
2022-08-23T01:30:20.626Z,2.20
2022-08-23T01:32:53.424Z,1.80
2022-08-23T01:38:17.506Z,1.93
2022-08-23T01:40:51.546Z,2.37
2022-08-23T01:43:23.313Z,2.73
2022-08-23T01:45:56.437Z,2.13
2022-08-23T01:48:27.643Z,2.40
2022-08-23T01:50:58.601Z,2.63
2022-08-23T01:53:28.546Z,2.07
2022-08-23T01:56:03.288Z,2.03
2022-08-23T01:58:36.069Z,1.90
2022-08-23T02:01:06.007Z,2.67
2022-08-23T02:03:38.012Z,2.27
2022-08-23T02:06:09.013Z,1.80
2022-08-23T02:08:52.483Z,2.00
2022-08-23T02:11:28.122Z,1.97
2022-08-23T02:14:00.989Z,2.30
2022-08-23T02:16:39.556Z,2.37
2022-08-23T02:19:14.617Z,2.60
2022-08-23T02:21:45.910Z,1.90
2022-08-23T02:24:18.201Z,2.27
2022-08-23T02:26:56.853Z,2.00
2022-08-23T02:29:29.862Z,1.93
2022-08-23T02:32:02.320Z,2.37
2022-08-23T02:34:38.525Z,2.20
2022-08-23T02:37:09.382Z,2.30
2022-08-23T02:39:39.429Z,2.17
2022-08-23T02:42:14.644Z,1.63
2022-08-23T02:44:46.522Z,2.67
2022-08-23T02:47:17.571Z,1.90
2022-08-23T02:49:55.129Z,2.03
2022-08-23T02:52:24.938Z,2.07
2022-08-23T02:54:58.072Z,2.00
2022-08-23T02:57:31.571Z,2.43
2022-08-23T03:00:02.781Z,2.57
2022-08-23T03:02:33.237Z,2.30
2022-08-23T03:05:03.593Z,1.90
2022-08-23T03:07:33.842Z,2.80
2022-08-23T03:10:05.089Z,2.23
2022-08-23T03:12:40.282Z,2.17
2022-08-23T03:15:11.870Z,2.10
2022-08-23T03:17:41.890Z,2.23
2022-08-23T03:20:14.168Z,2.83
2022-08-23T03:22:54.338Z,1.60
2022-08-23T03:25:26.700Z,2.33
2022-08-23T03:28:16.992Z,2.07
2022-08-23T03:30:48.112Z,3.10
2022-08-23T03:33:18.143Z,2.00
2022-08-23T03:35:49.342Z,2.20
2022-08-23T03:38:21.381Z,2.00
2022-08-23T03:40:54.032Z,2.00
2022-08-23T03:43:27.085Z,1.80
2022-08-23T03:45:56.954Z,2.07
2022-08-23T03:48:27.562Z,2.20
2022-08-23T03:50:57.258Z,2.30
2022-08-23T03:53:27.808Z,1.87
2022-08-23T03:55:58.721Z,2.40
2022-08-23T03:58:31.007Z,2.53
2022-08-23T04:01:00.681Z,2.80
2022-08-23T04:03:30.467Z,1.97
2022-08-23T04:06:08.206Z,2.73
2022-08-23T04:08:38.079Z,2.13
2022-08-23T04:11:09.235Z,2.80
2022-08-23T04:13:43.716Z,2.30
2022-08-23T04:16:14.636Z,2.47
2022-08-23T04:18:44.572Z,2.50
2022-08-23T04:21:25.073Z,2.23
2022-08-23T04:23:55.209Z,2.50
2022-08-23T04:26:29.697Z,1.97
2022-08-23T04:29:02.470Z,2.00
2022-08-23T04:31:34.680Z,1.83
2022-08-23T04:34:05.463Z,2.33
2022-08-23T04:36:46.021Z,1.97
2022-08-23T04:39:22.340Z,2.53
2022-08-23T04:42:04.689Z,2.30
2022-08-23T04:44:37.092Z,2.47
2022-08-23T04:47:07.529Z,2.63
2022-08-23T04:49:37.421Z,2.80
2022-08-23T04:52:07.204Z,2.87
2022-08-23T04:54:36.987Z,2.50
2022-08-23T04:57:22.751Z,3.00
2022-08-23T04:59:55.052Z,2.50
2022-08-23T05:02:25.258Z,2.40
2022-08-23T05:04:55.808Z,3.00
2022-08-23T05:07:41.477Z,2.40
2022-08-23T05:10:18.204Z,2.70
2022-08-23T05:12:51.859Z,2.57
2022-08-23T05:15:26.307Z,2.17
2022-08-23T05:18:01.825Z,1.97
2022-08-23T05:20:32.612Z,2.07
2022-08-23T05:23:03.441Z,2.50
2022-08-23T05:25:54.249Z,2.50
2022-08-23T05:28:31.116Z,2.10
2022-08-23T05:31:11.900Z,2.77
2022-08-23T05:34:02.445Z,2.20
2022-08-23T05:36:56.034Z,1.90
2022-08-23T05:39:36.335Z,2.40
2022-08-23T05:42:14.011Z,2.40
2022-08-23T05:44:45.644Z,2.67
2022-08-23T05:47:23.638Z,1.90
2022-08-23T05:50:13.905Z,2.40
2022-08-23T05:52:46.755Z,2.70
2022-08-23T05:55:19.244Z,2.20
2022-08-23T05:57:59.265Z,3.10
2022-08-23T06:00:37.415Z,2.57
2022-08-23T06:03:11.765Z,1.97
2022-08-23T06:05:43.534Z,1.70
2022-08-23T06:08:14.552Z,2.10
2022-08-23T06:10:44.387Z,2.17
2022-08-23T06:13:23.669Z,1.90
2022-08-23T06:15:53.631Z,2.20
2022-08-23T06:18:26.160Z,1.97
2022-08-23T06:21:04.035Z,2.10
2022-08-23T06:23:47.169Z,1.80
2022-08-23T06:26:21.501Z,2.20
2022-08-23T06:28:55.191Z,2.23
2022-08-23T06:31:40.043Z,2.20
2022-08-23T06:34:21.282Z,2.90
2022-08-23T06:37:12.005Z,2.50
2022-08-23T06:40:00.596Z,2.70
2022-08-23T06:42:49.708Z,2.13
2022-08-23T06:45:33.935Z,2.57
2022-08-23T06:48:07.184Z,1.97
2022-08-23T06:50:43.805Z,2.10
2022-08-23T06:53:34.064Z,2.10
2022-08-23T06:56:25.340Z,2.40
2022-08-23T06:59:07.391Z,1.93
2022-08-23T07:02:05.353Z,2.40
2022-08-23T07:04:58.366Z,1.77
2022-08-23T07:07:44.518Z,2.30
2022-08-23T07:10:16.708Z,2.17
2022-08-23T07:12:46.973Z,2.23
2022-08-23T07:15:17.111Z,1.87
2022-08-23T07:17:48.515Z,1.73
2022-08-23T07:20:18.311Z,2.60
2022-08-23T07:22:50.835Z,1.60
2022-08-23T07:25:20.812Z,2.43
2022-08-23T07:27:55.254Z,2.33
2022-08-23T07:30:25.402Z,2.33
2022-08-23T07:32:56.396Z,1.77
2022-08-23T07:35:31.141Z,2.10
2022-08-23T07:38:04.756Z,2.10
2022-08-23T07:40:38.981Z,1.97
2022-08-23T07:43:10.344Z,2.30
2022-08-23T07:45:43.371Z,2.00
2022-08-23T07:48:20.443Z,1.93
2022-08-23T07:51:15.349Z,2.03
2022-08-23T07:53:48.184Z,1.77
2022-08-23T07:56:22.146Z,1.80
2022-08-23T07:59:23.850Z,2.00
2022-08-23T08:02:12.191Z,2.60
2022-08-23T08:04:43.184Z,1.83
2022-08-23T08:07:21.358Z,2.30
2022-08-23T08:10:01.589Z,2.13
2022-08-23T08:12:32.985Z,2.10
2022-08-23T08:15:10.759Z,2.20
2022-08-23T08:17:42.889Z,1.90
2022-08-23T08:20:13.186Z,1.70
2022-08-23T08:23:01.221Z,2.10
2022-08-23T08:26:08.930Z,2.57
2022-08-23T08:28:40.587Z,2.47
2022-08-23T08:31:11.269Z,2.10
2022-08-23T08:33:41.689Z,1.70
2022-08-23T08:36:31.991Z,1.77
2022-08-23T08:39:01.984Z,1.60
2022-08-23T08:41:46.245Z,1.90
2022-08-23T08:44:27.357Z,1.90
2022-08-23T08:46:59.404Z,2.00
2022-08-23T08:49:40.941Z,1.57
2022-08-23T08:52:19.646Z,1.70
2022-08-23T08:54:53.371Z,2.00
2022-08-23T08:57:28.396Z,1.87
2022-08-23T09:00:03.440Z,1.70
2022-08-23T09:02:37.433Z,1.80
2022-08-23T09:05:15.322Z,1.40
2022-08-23T09:08:01.272Z,1.93
2022-08-23T09:10:58.132Z,2.60
2022-08-23T09:13:56.604Z,1.80
2022-08-23T09:16:37.995Z,1.73
2022-08-23T09:19:08.041Z,1.70
2022-08-23T09:21:46.170Z,2.10
2022-08-23T09:24:16.629Z,1.70
2022-08-23T09:27:07.019Z,1.27
2022-08-23T09:29:41.862Z,1.63
2022-08-23T09:32:29.949Z,1.67
2022-08-23T09:35:13.336Z,1.60
2022-08-23T09:38:00.739Z,2.10
2022-08-23T09:40:41.059Z,1.87
2022-08-23T09:43:15.875Z,1.70
2022-08-23T09:46:01.995Z,2.30
2022-08-23T09:48:40.025Z,2.10
2022-08-23T09:51:21.212Z,2.40
2022-08-23T09:53:55.211Z,1.80
2022-08-23T09:56:27.897Z,1.50
2022-08-23T09:58:57.743Z,2.17
2022-08-23T10:01:42.644Z,1.40
2022-08-23T10:04:18.783Z,2.37
2022-08-23T10:06:48.851Z,1.60
2022-08-23T10:09:26.973Z,1.80
2022-08-23T10:11:59.208Z,1.60
2022-08-23T10:14:33.067Z,1.87
2022-08-23T10:17:17.398Z,1.70
2022-08-23T10:19:57.341Z,1.97
2022-08-23T10:22:29.665Z,1.67
2022-08-23T10:25:29.293Z,1.87
2022-08-23T10:28:22.063Z,2.10
2022-08-23T10:31:00.087Z,2.20
2022-08-23T10:33:45.554Z,1.40
2022-08-23T10:36:21.233Z,1.77
2022-08-23T10:38:56.934Z,2.40
2022-08-23T10:41:50.323Z,1.50
2022-08-23T10:44:27.353Z,1.40
2022-08-23T10:47:07.549Z,1.43
2022-08-23T10:49:42.383Z,1.70
2022-08-23T10:52:19.963Z,1.93
2022-08-23T10:55:06.405Z,1.70
2022-08-23T10:57:40.764Z,1.60
2022-08-23T11:00:16.040Z,1.33
2022-08-23T11:02:56.258Z,2.00
2022-08-23T11:05:35.936Z,1.83
2022-08-23T11:08:32.597Z,1.57
2022-08-23T11:11:04.287Z,1.83
2022-08-23T11:13:37.039Z,1.67
2022-08-23T11:16:15.944Z,1.70
2022-08-23T11:18:49.742Z,1.40
2022-08-23T11:21:51.119Z,1.87
2022-08-23T11:24:51.971Z,2.00
2022-08-23T11:27:42.349Z,1.93
2022-08-23T11:30:50.065Z,1.70
2022-08-23T11:33:28.814Z,2.10
2022-08-23T11:36:21.821Z,2.00
2022-08-23T11:39:15.770Z,1.70
2022-08-23T11:42:09.159Z,1.43
2022-08-23T11:44:49.726Z,1.20
2022-08-23T11:47:30.569Z,1.77
2022-08-23T11:50:19.974Z,1.40
2022-08-23T11:53:01.661Z,1.70
2022-08-23T11:56:02.603Z,1.57
2022-08-23T11:58:48.499Z,1.30
2022-08-23T12:01:19.256Z,1.47
2022-08-23T12:03:59.963Z,1.23
2022-08-23T12:06:50.460Z,1.30
2022-08-23T12:09:56.355Z,1.60
2022-08-23T12:12:41.750Z,1.70
2022-08-23T12:15:15.898Z,1.93
2022-08-23T12:18:13.964Z,1.67
2022-08-23T12:20:48.310Z,2.00
2022-08-23T12:23:22.766Z,1.70
2022-08-23T12:26:06.305Z,1.40
2022-08-23T12:28:45.727Z,1.50
2022-08-23T12:31:24.729Z,1.83
2022-08-23T12:34:18.267Z,2.33
2022-08-23T12:36:54.329Z,1.43
2022-08-23T12:39:28.821Z,1.20
2022-08-23T12:42:09.138Z,1.40
2022-08-23T12:44:41.329Z,1.77
2022-08-23T12:47:20.231Z,1.47
2022-08-23T12:50:00.390Z,1.50
2022-08-23T12:52:33.315Z,1.50
2022-08-23T12:55:03.177Z,2.50
2022-08-23T12:57:36.510Z,2.23
2022-08-23T13:00:20.706Z,1.37
2022-08-23T13:02:55.482Z,2.00
2022-08-23T13:05:39.645Z,1.80
2022-08-23T13:08:12.478Z,1.33
2022-08-23T13:10:46.232Z,1.33
2022-08-23T13:13:19.424Z,1.47
2022-08-23T13:15:55.672Z,1.80
2022-08-23T13:18:35.556Z,1.77
2022-08-23T13:21:39.620Z,1.63
2022-08-23T13:24:37.904Z,1.20
2022-08-23T13:27:24.031Z,1.40
2022-08-23T13:29:57.464Z,1.60
2022-08-23T13:32:39.258Z,1.40
2022-08-23T13:35:29.447Z,1.57
2022-08-23T13:38:02.274Z,1.47
2022-08-23T13:40:34.662Z,1.57
2022-08-23T13:43:10.157Z,1.60
2022-08-23T13:45:48.264Z,1.60
2022-08-23T13:48:24.767Z,1.67
2022-08-23T13:50:54.763Z,1.47
2022-08-23T13:53:24.652Z,2.10
2022-08-23T13:55:58.603Z,1.90
2022-08-23T13:58:31.393Z,1.80
2022-08-23T14:01:02.429Z,1.80
2022-08-23T14:03:35.426Z,1.83
2022-08-23T14:06:04.976Z,1.67
2022-08-23T14:08:34.741Z,1.93
2022-08-23T14:11:04.412Z,2.00
2022-08-23T14:13:36.784Z,1.87
2022-08-23T14:19:54.606Z,1.33
2022-08-23T14:21:53.331Z,1.90
2022-08-23T14:24:23.666Z,1.80
2022-08-23T14:26:53.356Z,2.00
2022-08-23T14:29:23.854Z,1.50
2022-08-23T14:31:54.506Z,1.50
2022-08-23T14:34:26.838Z,1.50
2022-08-23T14:39:46.258Z,1.90
2022-08-23T14:42:18.875Z,1.40
2022-08-23T14:44:48.469Z,1.73
2022-08-23T14:47:18.240Z,1.50
2022-08-23T14:49:53.678Z,1.60
2022-08-23T14:52:24.844Z,1.47
2022-08-23T14:54:54.499Z,1.50
2022-08-23T14:57:24.153Z,1.83
2022-08-23T14:59:53.789Z,1.40
2022-08-23T15:02:27.227Z,1.67
2022-08-23T15:04:59.369Z,1.60
2022-08-23T15:07:28.963Z,1.43
2022-08-23T15:09:58.619Z,1.70
2022-08-23T15:15:21.924Z,1.57
2022-08-23T15:17:54.580Z,1.57
2022-08-23T15:20:30.050Z,1.43
2022-08-23T15:23:00.420Z,1.63
2022-08-23T15:25:33.390Z,1.50
2022-08-23T15:28:03.754Z,2.10
2022-08-23T15:30:35.275Z,1.60
2022-08-23T15:33:05.173Z,2.10
2022-08-23T15:35:42.628Z,2.10
2022-08-23T15:38:15.572Z,1.57
2022-08-23T15:40:45.640Z,2.33
2022-08-23T15:43:15.942Z,2.23
2022-08-23T15:45:45.862Z,1.87
2022-08-23T15:48:19.317Z,1.87
2022-08-23T15:50:52.089Z,1.57
2022-08-23T15:53:22.140Z,1.33
2022-08-23T15:55:52.212Z,1.40
2022-08-23T15:58:25.839Z,1.60
2022-08-23T16:00:56.822Z,1.67
2022-08-23T16:03:26.538Z,1.90
2022-08-23T16:05:58.847Z,1.67
2022-08-23T16:08:32.689Z,1.97
2022-08-23T16:11:05.066Z,1.67
2022-08-23T16:13:34.770Z,1.50
2022-08-23T16:16:06.002Z,1.13
2022-08-23T16:18:35.650Z,1.20
2022-08-23T16:21:08.168Z,1.43
2022-08-23T16:23:39.871Z,1.47
2022-08-23T16:26:11.089Z,1.50
2022-08-23T16:28:43.983Z,1.17
2022-08-23T16:31:14.466Z,1.20
2022-08-23T16:33:44.443Z,1.50
2022-08-23T16:36:18.269Z,1.10
2022-08-23T16:38:48.115Z,1.63
2022-08-23T16:41:18.068Z,1.30
2022-08-23T16:43:51.245Z,1.00
2022-08-23T16:46:22.994Z,1.53
2022-08-23T16:48:52.815Z,1.23
2022-08-23T16:51:25.542Z,1.30
2022-08-23T16:54:02.984Z,1.60
2022-08-23T16:56:33.512Z,1.40
2022-08-23T16:59:03.645Z,1.50
2022-08-23T17:01:34.537Z,1.97
2022-08-23T17:04:04.212Z,1.97
2022-08-23T17:06:36.355Z,1.80
2022-08-23T17:09:06.731Z,2.07
2022-08-23T17:11:36.942Z,1.30
2022-08-23T17:14:07.446Z,1.37
2022-08-23T17:16:37.223Z,2.00
2022-08-23T17:19:07.519Z,1.67
2022-08-23T17:21:40.093Z,1.20
2022-08-23T17:24:10.363Z,1.80
2022-08-23T17:26:40.367Z,1.60
2022-08-23T17:29:12.330Z,1.20
2022-08-23T17:31:42.232Z,1.33
2022-08-23T17:34:12.014Z,1.40
2022-08-23T17:36:47.832Z,1.30
2022-08-23T17:39:19.800Z,1.30
2022-08-23T17:41:49.587Z,1.30
2022-08-23T17:44:20.449Z,1.37
2022-08-23T17:46:50.882Z,1.37
2022-08-23T17:49:22.871Z,1.20
2022-08-23T17:51:55.057Z,1.67
2022-08-23T17:54:25.230Z,1.63
2022-08-23T17:56:54.872Z,1.40
2022-08-23T17:59:25.932Z,1.23
2022-08-23T18:01:55.652Z,1.30
2022-08-23T18:04:25.421Z,1.00
2022-08-23T18:06:58.441Z,1.00
2022-08-23T18:09:28.381Z,1.80
2022-08-23T18:11:58.099Z,1.40
2022-08-23T18:14:28.191Z,1.37
2022-08-23T18:16:58.733Z,1.27
2022-08-23T18:19:28.515Z,1.37
2022-08-23T18:22:02.460Z,1.37
2022-08-23T18:24:33.353Z,1.60
2022-08-23T18:27:20.837Z,1.60
2022-08-23T18:29:52.066Z,1.50
2022-08-23T18:32:23.159Z,1.80
2022-08-23T18:34:53.451Z,1.60
2022-08-23T18:37:25.778Z,1.47
2022-08-23T18:39:55.371Z,1.37
2022-08-23T18:42:25.059Z,1.10
2022-08-23T18:44:54.711Z,1.30
2022-08-23T18:47:24.293Z,1.57
2022-08-23T18:49:53.886Z,1.93
2022-08-23T18:52:27.548Z,1.30
2022-08-23T18:55:02.822Z,1.60
2022-08-23T18:57:33.222Z,1.80
2022-08-23T19:00:02.934Z,1.50
2022-08-23T19:02:32.693Z,1.40
2022-08-23T19:05:03.074Z,1.40
2022-08-23T19:07:35.209Z,1.27
2022-08-23T19:10:06.255Z,2.40
2022-08-23T19:12:35.999Z,3.30
2022-08-23T19:15:06.163Z,1.73
2022-08-23T19:17:36.791Z,1.50
2022-08-23T19:20:09.603Z,1.60
2022-08-23T19:22:43.287Z,1.67
2022-08-23T19:25:13.166Z,1.40
2022-08-23T19:27:43.256Z,1.50
2022-08-23T19:30:16.051Z,1.60
2022-08-23T19:32:47.731Z,1.43
2022-08-23T19:35:19.287Z,1.10
2022-08-23T19:37:51.546Z,1.20
2022-08-23T19:40:21.424Z,1.70
2022-08-23T19:42:53.177Z,1.63
2022-08-23T19:45:26.006Z,1.30
2022-08-23T19:48:02.841Z,1.27
2022-08-23T19:50:32.579Z,1.70
2022-08-23T19:53:06.988Z,1.20
2022-08-23T19:55:37.794Z,1.33
2022-08-23T19:58:07.394Z,1.83
2022-08-23T20:00:43.866Z,1.17
2022-08-23T20:03:14.065Z,1.37
2022-08-23T20:05:43.879Z,1.30
2022-08-23T20:08:16.070Z,1.33
2022-08-23T20:10:46.002Z,1.30
2022-08-23T20:13:15.999Z,1.83
2022-08-23T20:15:45.593Z,1.30
2022-08-23T20:18:15.194Z,1.10
2022-08-23T20:20:45.010Z,1.47
2022-08-23T20:23:31.639Z,1.30
2022-08-23T20:26:01.257Z,1.30
2022-08-23T20:28:31.641Z,1.40
2022-08-23T20:31:08.820Z,1.37
2022-08-23T20:33:38.450Z,1.17
2022-08-23T20:36:08.178Z,1.40
2022-08-23T20:38:40.498Z,1.50
2022-08-23T20:41:11.943Z,1.20
2022-08-23T20:43:50.179Z,1.37
2022-08-23T20:46:20.002Z,1.63
2022-08-23T20:48:51.487Z,1.53
2022-08-23T20:51:22.327Z,1.60
2022-08-23T20:53:54.863Z,1.27
2022-08-23T20:56:28.204Z,1.50
2022-08-23T20:58:58.932Z,1.57
2022-08-23T21:01:28.701Z,1.53
2022-08-23T21:04:00.156Z,1.27
2022-08-23T21:06:34.006Z,1.00
2022-08-23T21:09:08.097Z,1.20
2022-08-23T21:11:37.694Z,1.10
2022-08-23T21:14:08.373Z,1.30
2022-08-23T21:16:39.269Z,1.30
2022-08-23T21:19:09.614Z,1.50
2022-08-23T21:21:41.121Z,1.40
2022-08-23T21:24:14.113Z,1.70
2022-08-23T21:26:44.946Z,1.40
2022-08-23T21:29:14.637Z,1.03
2022-08-23T21:31:44.189Z,1.47
2022-08-23T21:34:14.524Z,1.50
2022-08-23T21:36:45.134Z,1.23
2022-08-23T21:39:17.320Z,2.17
2022-08-23T21:41:48.486Z,1.57
2022-08-23T21:44:21.594Z,1.47
2022-08-23T21:46:53.218Z,1.40
2022-08-23T21:49:23.561Z,1.73
2022-08-23T21:51:54.407Z,1.90
2022-08-23T21:54:26.794Z,1.40
2022-08-23T21:56:56.348Z,1.80
2022-08-23T21:59:26.862Z,1.20
2022-08-23T22:01:56.597Z,1.27
2022-08-23T22:04:26.385Z,1.60
2022-08-23T22:06:57.239Z,1.83
2022-08-23T22:09:32.599Z,1.43
2022-08-23T22:12:03.535Z,1.00
2022-08-23T22:14:33.985Z,1.13
2022-08-23T22:17:03.746Z,1.20
2022-08-23T22:19:33.375Z,1.43
2022-08-23T22:22:02.971Z,1.77
2022-08-23T22:24:35.175Z,1.40
2022-08-23T22:27:04.802Z,1.70
2022-08-23T22:29:34.683Z,1.23
2022-08-23T22:32:04.731Z,1.20
2022-08-23T22:34:34.294Z,2.10
2022-08-23T22:37:04.002Z,1.43
2022-08-23T22:39:36.482Z,1.60
2022-08-23T22:42:06.301Z,1.90
2022-08-23T22:44:41.737Z,1.37
2022-08-23T22:47:11.551Z,1.53
2022-08-23T22:49:41.442Z,1.47
2022-08-23T22:52:12.555Z,1.23
2022-08-23T22:54:44.696Z,1.60
2022-08-23T22:57:14.280Z,1.50
2022-08-23T22:59:44.015Z,1.60
2022-08-23T23:02:13.821Z,1.47
2022-08-23T23:04:45.666Z,1.47
2022-08-23T23:07:35.789Z,1.50
2022-08-23T23:10:08.869Z,1.70
2022-08-23T23:12:38.465Z,1.23
2022-08-23T23:15:08.867Z,1.60
2022-08-23T23:17:38.583Z,2.37
2022-08-23T23:20:21.717Z,1.70
2022-08-23T23:22:52.345Z,1.80
2022-08-23T23:25:24.821Z,1.53
2022-08-23T23:27:54.437Z,1.67
2022-08-23T23:30:24.060Z,1.50
2022-08-23T23:32:53.791Z,1.63
2022-08-23T23:35:23.680Z,2.37
2022-08-23T23:37:53.380Z,1.43
2022-08-23T23:40:28.226Z,1.40
2022-08-23T23:42:58.149Z,1.47
2022-08-23T23:45:27.786Z,2.10
2022-08-23T23:47:58.064Z,1.70
2022-08-23T23:50:28.293Z,1.67
2022-08-23T23:52:58.328Z,1.70
2022-08-23T23:55:31.551Z,2.30
2022-08-23T23:58:01.713Z,1.80
